createdAt,value
2018-11-11T00:00:20.703Z,997.71
2018-11-11T00:01:17.869Z,997.75
2018-11-11T00:02:20.819Z,997.74
2018-11-11T00:03:43.292Z,997.76
2018-11-11T00:04:23.872Z,997.75
2018-11-11T00:05:36.796Z,997.80
2018-11-11T00:06:18.997Z,997.82
2018-11-11T00:07:18.157Z,997.81
2018-11-11T00:08:17.536Z,997.78
2018-11-11T00:09:43.195Z,997.80
2018-11-11T00:12:02.633Z,997.75
2018-11-11T00:13:26.884Z,997.75
2018-11-11T00:14:26.860Z,997.77
2018-11-11T00:15:02.590Z,997.76
2018-11-11T00:16:34.967Z,997.76
2018-11-11T00:17:02.550Z,997.75
2018-11-11T00:18:01.317Z,997.70
2018-11-11T00:19:01.706Z,997.68
2018-11-11T00:20:40.566Z,997.63
2018-11-11T00:21:02.488Z,997.64
2018-11-11T00:22:04.079Z,997.65
2018-11-11T00:23:02.444Z,997.67
2018-11-11T00:24:07.279Z,997.69
2018-11-11T00:25:01.602Z,997.69
2018-11-11T00:26:00.989Z,997.67
2018-11-11T00:28:44.784Z,997.65
2018-11-11T00:29:46.078Z,997.69
2018-11-11T00:31:10.315Z,997.70
2018-11-11T00:31:44.627Z,997.68
2018-11-11T00:32:46.023Z,997.71
2018-11-11T00:34:10.268Z,997.68
2018-11-11T00:34:47.614Z,997.72
2018-11-11T00:35:45.168Z,997.72
2018-11-11T00:36:57.279Z,997.75
2018-11-11T00:38:18.340Z,997.73
2018-11-11T00:39:43.513Z,997.68
2018-11-11T00:40:17.903Z,997.68
2018-11-11T00:40:44.474Z,997.69
2018-11-11T00:42:03.662Z,997.66
2018-11-11T00:42:44.654Z,997.63
2018-11-11T00:43:57.158Z,997.64
2018-11-11T00:45:10.079Z,997.66
2018-11-11T00:45:45.000Z,997.60
2018-11-11T00:47:18.190Z,997.70
2018-11-11T00:47:47.388Z,997.69
2018-11-11T00:49:30.285Z,997.63
2018-11-11T00:49:45.743Z,997.71
2018-11-11T00:51:43.184Z,997.59
2018-11-11T00:51:44.288Z,997.63
2018-11-11T00:52:44.876Z,997.58
2018-11-11T00:53:50.523Z,997.58
2018-11-11T00:54:47.271Z,997.62
2018-11-11T00:55:47.255Z,997.64
2018-11-11T00:56:44.415Z,997.61
2018-11-11T00:59:27.920Z,997.65
2018-11-11T01:02:12.207Z,997.64
2018-11-11T01:03:44.993Z,997.63
2018-11-11T01:04:24.299Z,997.60
2018-11-11T01:05:11.564Z,997.61
2018-11-11T01:06:44.739Z,997.66
2018-11-11T01:07:12.120Z,997.64
2018-11-11T01:08:11.497Z,997.63
2018-11-11T01:09:37.149Z,997.62
2018-11-11T01:10:12.068Z,997.65
2018-11-11T01:11:11.441Z,997.62
2018-11-11T01:12:47.669Z,997.60
2018-11-11T01:13:24.148Z,997.56
2018-11-11T01:14:11.595Z,997.55
2018-11-11T01:16:03.789Z,997.55
2018-11-11T01:16:44.768Z,997.52
2018-11-11T01:17:14.382Z,997.54
2018-11-11T01:18:11.325Z,997.55
2018-11-11T01:19:24.050Z,997.55
2018-11-11T01:20:17.560Z,997.54
2018-11-11T01:21:11.275Z,997.52
2018-11-11T01:22:45.877Z,997.51
2018-11-11T01:23:11.236Z,997.54
2018-11-11T01:24:11.217Z,997.59
2018-11-11T01:25:11.200Z,997.56
2018-11-11T01:26:11.187Z,997.61
2018-11-11T01:27:11.170Z,997.58
2018-11-11T01:28:11.154Z,997.62
2018-11-11T01:29:11.132Z,997.66
2018-11-11T01:30:11.115Z,997.65
2018-11-11T01:31:11.099Z,997.70
2018-11-11T01:32:11.081Z,997.69
2018-11-11T01:33:11.067Z,997.69
2018-11-11T01:34:11.051Z,997.69
2018-11-11T01:35:11.030Z,997.70
2018-11-11T01:36:11.012Z,997.69
2018-11-11T01:37:10.993Z,997.64
2018-11-11T01:38:10.974Z,997.71
2018-11-11T01:39:10.959Z,997.73
2018-11-11T01:40:10.947Z,997.74
2018-11-11T01:41:10.924Z,997.76
2018-11-11T01:42:10.907Z,997.73
2018-11-11T01:43:10.895Z,997.81
2018-11-11T01:44:10.872Z,997.78
2018-11-11T01:45:10.854Z,997.77
2018-11-11T01:46:10.837Z,997.83
2018-11-11T01:47:10.818Z,997.84
2018-11-11T01:48:10.804Z,997.86
2018-11-11T01:49:10.798Z,997.84
2018-11-11T01:50:10.767Z,997.80
2018-11-11T01:51:10.750Z,997.82
2018-11-11T01:52:10.732Z,997.84
2018-11-11T01:53:10.714Z,997.86
2018-11-11T01:54:10.698Z,997.86
2018-11-11T01:55:10.682Z,997.82
2018-11-11T01:56:10.663Z,997.82
2018-11-11T01:57:10.647Z,997.80
2018-11-11T01:58:10.629Z,997.78
2018-11-11T01:59:10.616Z,997.78
2018-11-11T02:00:10.595Z,997.87
2018-11-11T02:01:10.583Z,997.85
2018-11-11T02:02:10.565Z,997.85
2018-11-11T02:03:10.549Z,997.88
2018-11-11T02:04:10.543Z,997.89
2018-11-11T02:05:10.515Z,997.87
2018-11-11T02:06:10.491Z,997.90
2018-11-11T02:07:10.474Z,997.87
2018-11-11T02:08:10.455Z,997.93
2018-11-11T02:09:10.447Z,997.91
2018-11-11T02:10:10.422Z,997.96
2018-11-11T02:11:10.406Z,997.92
2018-11-11T02:12:10.384Z,997.86
2018-11-11T02:13:10.374Z,997.91
2018-11-11T02:14:10.361Z,997.89
2018-11-11T02:15:10.334Z,997.92
2018-11-11T02:16:10.317Z,997.86
2018-11-11T02:17:10.302Z,997.78
2018-11-11T02:18:10.285Z,997.84
2018-11-11T02:19:10.269Z,997.84
2018-11-11T02:20:10.247Z,997.81
2018-11-11T02:21:10.310Z,997.79
2018-11-11T02:22:10.219Z,997.78
2018-11-11T02:23:10.195Z,997.79
2018-11-11T02:24:10.179Z,997.72
2018-11-11T02:25:10.164Z,997.72
2018-11-11T02:26:10.143Z,997.67
2018-11-11T02:27:10.127Z,997.64
2018-11-11T02:28:10.107Z,997.65
2018-11-11T02:29:10.092Z,997.64
2018-11-11T02:30:10.076Z,997.62
2018-11-11T02:31:10.058Z,997.62
2018-11-11T02:32:10.038Z,997.61
2018-11-11T02:33:10.019Z,997.61
2018-11-11T02:34:10.009Z,997.58
2018-11-11T02:35:09.990Z,997.59
2018-11-11T02:36:09.975Z,997.58
2018-11-11T02:37:09.950Z,997.59
2018-11-11T02:38:09.937Z,997.58
2018-11-11T02:39:09.917Z,997.55
2018-11-11T02:40:09.902Z,997.52
2018-11-11T02:41:09.885Z,997.53
2018-11-11T02:42:09.866Z,997.54
2018-11-11T02:43:09.846Z,997.61
2018-11-11T02:44:09.832Z,997.59
2018-11-11T02:45:09.815Z,997.59
2018-11-11T02:46:09.793Z,997.55
2018-11-11T02:47:09.783Z,997.59
2018-11-11T02:48:09.759Z,997.60
2018-11-11T02:49:09.741Z,997.61
2018-11-11T02:50:09.723Z,997.60
2018-11-11T02:51:09.713Z,997.65
2018-11-11T02:52:09.691Z,997.65
2018-11-11T02:53:09.670Z,997.68
2018-11-11T02:54:09.652Z,997.65
2018-11-11T02:55:09.634Z,997.65
2018-11-11T02:56:09.620Z,997.59
2018-11-11T02:57:09.597Z,997.58
2018-11-11T02:58:09.584Z,997.59
2018-11-11T02:59:09.565Z,997.54
2018-11-11T03:00:09.546Z,997.52
2018-11-11T03:01:09.528Z,997.58
2018-11-11T03:02:09.522Z,997.61
2018-11-11T03:03:09.497Z,997.63
2018-11-11T03:04:09.490Z,997.61
2018-11-11T03:05:09.457Z,997.59
2018-11-11T03:06:09.441Z,997.60
2018-11-11T03:07:09.429Z,997.59
2018-11-11T03:08:09.407Z,997.62
2018-11-11T03:09:09.390Z,997.58
2018-11-11T03:10:09.373Z,997.56
2018-11-11T03:11:09.363Z,997.61
2018-11-11T03:12:09.336Z,997.60
2018-11-11T03:13:09.322Z,997.53
2018-11-11T03:14:09.302Z,997.51
2018-11-11T03:15:09.283Z,997.56
2018-11-11T03:16:09.282Z,997.56
2018-11-11T03:17:09.253Z,997.51
2018-11-11T03:18:09.239Z,997.52
2018-11-11T03:19:09.218Z,997.52
2018-11-11T03:20:09.195Z,997.50
2018-11-11T03:21:09.180Z,997.53
2018-11-11T03:22:09.160Z,997.52
2018-11-11T03:23:09.146Z,997.53
2018-11-11T03:24:09.136Z,997.53
2018-11-11T03:25:09.112Z,997.57
2018-11-11T03:26:09.094Z,997.54
2018-11-11T03:27:09.074Z,997.57
2018-11-11T03:28:09.068Z,997.61
2018-11-11T03:29:09.036Z,997.59
2018-11-11T03:30:09.025Z,997.58
2018-11-11T03:31:09.007Z,997.61
2018-11-11T03:32:08.982Z,997.50
2018-11-11T03:33:08.969Z,997.55
2018-11-11T03:34:08.952Z,997.53
2018-11-11T03:35:08.928Z,997.51
2018-11-11T03:36:08.911Z,997.51
2018-11-11T03:37:08.909Z,997.50
2018-11-11T03:38:08.877Z,997.54
2018-11-11T03:39:08.859Z,997.53
2018-11-11T03:40:08.841Z,997.52
2018-11-11T03:41:08.829Z,997.52
2018-11-11T03:42:08.807Z,997.52
2018-11-11T03:43:08.794Z,997.53
2018-11-11T03:44:08.773Z,997.57
2018-11-11T03:45:08.755Z,997.58
2018-11-11T03:46:08.739Z,997.59
2018-11-11T03:47:08.731Z,997.55
2018-11-11T03:48:08.706Z,997.58
2018-11-11T03:49:08.685Z,997.60
2018-11-11T03:50:08.669Z,997.63
2018-11-11T03:51:08.649Z,997.72
2018-11-11T03:52:08.641Z,997.77
2018-11-11T03:53:08.615Z,997.79
2018-11-11T03:54:08.599Z,997.78
2018-11-11T03:55:08.582Z,997.71
2018-11-11T03:56:08.566Z,997.67
2018-11-11T03:57:08.548Z,997.70
2018-11-11T03:58:08.527Z,997.70
2018-11-11T03:59:08.517Z,997.74
2018-11-11T04:00:08.493Z,997.68
2018-11-11T04:01:08.474Z,997.71
2018-11-11T04:02:08.458Z,997.78
2018-11-11T04:03:08.449Z,997.71
2018-11-11T04:04:08.422Z,997.69
2018-11-11T04:05:08.406Z,997.71
2018-11-11T04:06:08.393Z,997.67
2018-11-11T04:07:08.371Z,997.70
2018-11-11T04:08:08.352Z,997.59
2018-11-11T04:09:08.334Z,997.65
2018-11-11T04:10:08.344Z,997.63
2018-11-11T04:11:08.299Z,997.58
2018-11-11T04:12:08.287Z,997.61
2018-11-11T04:13:08.269Z,997.58
2018-11-11T04:14:08.249Z,997.64
2018-11-11T04:15:08.228Z,997.63
2018-11-11T04:16:08.216Z,997.67
2018-11-11T04:17:08.201Z,997.67
2018-11-11T04:18:08.178Z,997.65
2018-11-11T04:19:08.164Z,997.66
2018-11-11T04:20:08.142Z,997.69
2018-11-11T04:21:08.124Z,997.74
2018-11-11T04:22:08.111Z,997.70
2018-11-11T04:23:08.090Z,997.70
2018-11-11T04:24:08.072Z,997.70
2018-11-11T04:25:08.053Z,997.67
2018-11-11T04:26:08.044Z,997.68
2018-11-11T04:27:08.020Z,997.61
2018-11-11T04:28:08.005Z,997.61
2018-11-11T04:29:07.987Z,997.65
2018-11-11T04:30:07.966Z,997.67
2018-11-11T04:31:07.949Z,997.72
2018-11-11T04:32:07.930Z,997.71
2018-11-11T04:33:07.914Z,997.72
2018-11-11T04:34:07.900Z,997.80
2018-11-11T04:35:07.880Z,997.83
2018-11-11T04:36:07.861Z,997.88
2018-11-11T04:37:07.849Z,997.83
2018-11-11T04:38:07.825Z,997.85
2018-11-11T04:39:07.856Z,997.83
2018-11-11T04:40:07.795Z,997.80
2018-11-11T04:41:07.774Z,997.81
2018-11-11T04:42:07.755Z,997.81
2018-11-11T04:43:07.743Z,997.80
2018-11-11T04:44:07.724Z,997.73
2018-11-11T04:45:07.702Z,997.71
2018-11-11T04:46:07.686Z,997.71
2018-11-11T04:47:07.679Z,997.68
2018-11-11T04:48:07.650Z,997.67
2018-11-11T04:49:07.654Z,997.71
2018-11-11T04:50:07.618Z,997.71
2018-11-11T04:51:07.600Z,997.63
2018-11-11T04:52:07.587Z,997.56
2018-11-11T04:53:07.562Z,997.57
2018-11-11T04:54:07.551Z,997.62
2018-11-11T04:55:07.529Z,997.58
2018-11-11T04:56:07.508Z,997.61
2018-11-11T04:57:07.493Z,997.64
2018-11-11T04:58:07.481Z,997.66
2018-11-11T04:59:07.456Z,997.70
2018-11-11T05:00:07.442Z,997.72
2018-11-11T05:01:07.421Z,997.74
2018-11-11T05:02:07.410Z,997.72
2018-11-11T05:03:07.389Z,997.77
2018-11-11T05:04:07.374Z,997.74
2018-11-11T05:05:07.353Z,997.77
2018-11-11T05:06:07.336Z,997.85
2018-11-11T05:07:07.320Z,997.77
2018-11-11T05:08:07.299Z,997.75
2018-11-11T05:09:07.282Z,997.71
2018-11-11T05:10:07.266Z,997.79
2018-11-11T05:11:07.256Z,997.80
2018-11-11T05:12:07.230Z,997.78
2018-11-11T05:13:07.213Z,997.77
2018-11-11T05:14:07.193Z,997.79
2018-11-11T05:15:07.177Z,997.81
2018-11-11T05:16:07.164Z,997.73
2018-11-11T05:17:07.141Z,997.79
2018-11-11T05:18:07.123Z,997.78
2018-11-11T05:19:07.106Z,997.82
2018-11-11T05:20:07.089Z,997.83
2018-11-11T05:21:07.083Z,997.78
2018-11-11T05:22:07.054Z,997.74
2018-11-11T05:23:07.037Z,997.71
2018-11-11T05:24:07.022Z,997.74
2018-11-11T05:25:06.999Z,997.78
2018-11-11T05:26:06.983Z,997.73
2018-11-11T05:27:06.966Z,997.78
2018-11-11T05:28:06.950Z,997.79
2018-11-11T05:29:06.931Z,997.75
2018-11-11T05:30:06.919Z,997.81
2018-11-11T05:31:06.899Z,997.82
2018-11-11T05:32:06.883Z,997.84
2018-11-11T05:33:06.860Z,997.91
2018-11-11T05:34:06.843Z,997.87
2018-11-11T05:35:06.827Z,997.84
2018-11-11T05:36:06.808Z,997.86
2018-11-11T05:37:06.796Z,997.84
2018-11-11T05:38:06.774Z,997.91
2018-11-11T05:39:06.755Z,997.91
2018-11-11T05:40:06.737Z,997.93
2018-11-11T05:41:06.720Z,997.93
2018-11-11T05:42:06.710Z,997.91
2018-11-11T05:43:06.685Z,997.90
2018-11-11T05:44:06.670Z,997.91
2018-11-11T05:45:06.650Z,997.90
2018-11-11T05:46:06.632Z,997.90
2018-11-11T05:47:06.616Z,997.96
2018-11-11T05:48:06.595Z,998.00
2018-11-11T05:49:06.577Z,997.98
2018-11-11T05:50:06.560Z,997.98
2018-11-11T05:51:06.545Z,998.02
2018-11-11T05:52:06.526Z,998.01
2018-11-11T05:53:06.509Z,998.00
2018-11-11T05:54:06.491Z,997.99
2018-11-11T05:55:06.473Z,998.00
2018-11-11T05:56:06.457Z,998.02
2018-11-11T05:57:06.444Z,998.04
2018-11-11T05:58:06.423Z,998.03
2018-11-11T05:59:06.407Z,998.02
2018-11-11T06:00:06.389Z,998.06
2018-11-11T06:01:06.369Z,998.05
2018-11-11T06:02:06.352Z,998.03
2018-11-11T06:03:06.337Z,998.06
2018-11-11T06:04:06.318Z,998.07
2018-11-11T06:05:06.299Z,998.13
2018-11-11T06:06:06.280Z,998.16
2018-11-11T06:07:06.265Z,998.11
2018-11-11T06:08:06.246Z,998.09
2018-11-11T06:09:06.230Z,998.06
2018-11-11T06:10:06.214Z,998.06
2018-11-11T06:11:06.195Z,998.06
2018-11-11T06:12:06.174Z,998.06
2018-11-11T06:13:06.163Z,998.03
2018-11-11T06:14:06.140Z,998.07
2018-11-11T06:15:06.123Z,998.08
2018-11-11T06:16:06.108Z,998.07
2018-11-11T06:17:06.092Z,998.13
2018-11-11T06:18:06.069Z,998.09
2018-11-11T06:19:06.056Z,998.13
2018-11-11T06:20:06.038Z,998.08
2018-11-11T06:21:06.017Z,998.05
2018-11-11T06:22:06.005Z,998.05
2018-11-11T06:23:05.985Z,998.10
2018-11-11T06:24:05.964Z,998.02
2018-11-11T06:25:05.946Z,998.07
2018-11-11T06:26:05.929Z,998.05
2018-11-11T06:27:05.931Z,998.07
2018-11-11T06:28:05.895Z,998.07
2018-11-11T06:29:05.876Z,998.05
2018-11-11T06:30:05.859Z,998.07
2018-11-11T06:31:05.845Z,998.03
2018-11-11T06:32:05.823Z,998.03
2018-11-11T06:33:05.808Z,998.17
2018-11-11T06:34:05.796Z,998.13
2018-11-11T06:35:05.771Z,998.16
2018-11-11T06:36:05.753Z,998.14
2018-11-11T06:37:05.740Z,998.16
2018-11-11T06:38:05.721Z,998.10
2018-11-11T06:39:05.703Z,998.11
2018-11-11T06:40:05.685Z,998.17
2018-11-11T06:41:05.665Z,998.17
2018-11-11T06:42:05.657Z,998.22
2018-11-11T06:43:05.630Z,998.23
2018-11-11T06:44:05.611Z,998.16
2018-11-11T06:45:05.608Z,998.16
2018-11-11T06:46:05.578Z,998.16
2018-11-11T06:47:05.560Z,998.22
2018-11-11T06:48:05.641Z,998.21
2018-11-11T06:49:05.527Z,998.21
2018-11-11T06:50:05.507Z,998.19
2018-11-11T06:51:05.491Z,998.20
2018-11-11T06:52:05.471Z,998.18
2018-11-11T06:53:05.455Z,998.25
2018-11-11T06:54:05.485Z,998.25
2018-11-11T06:55:05.422Z,998.28
2018-11-11T06:56:05.404Z,998.31
2018-11-11T06:57:05.381Z,998.30
2018-11-11T06:58:05.462Z,998.31
2018-11-11T06:59:05.349Z,998.33
2018-11-11T07:00:05.330Z,998.34
2018-11-11T07:01:05.312Z,998.34
2018-11-11T07:02:05.298Z,998.37
2018-11-11T07:03:05.276Z,998.35
2018-11-11T07:04:05.263Z,998.40
2018-11-11T07:05:05.260Z,998.34
2018-11-11T07:06:05.228Z,998.36
2018-11-11T07:07:05.205Z,998.38
2018-11-11T07:08:05.194Z,998.39
2018-11-11T07:09:05.171Z,998.38
2018-11-11T07:10:05.156Z,998.37
2018-11-11T07:11:05.139Z,998.41
2018-11-11T07:12:05.124Z,998.38
2018-11-11T07:13:05.106Z,998.38
2018-11-11T07:14:05.124Z,998.42
2018-11-11T07:15:05.068Z,998.38
2018-11-11T07:16:05.051Z,998.37
2018-11-11T07:17:05.030Z,998.35
2018-11-11T07:18:05.016Z,998.35
2018-11-11T07:19:05.000Z,998.44
2018-11-11T07:20:04.983Z,998.44
2018-11-11T07:21:04.964Z,998.45
2018-11-11T07:22:04.950Z,998.46
2018-11-11T07:23:04.929Z,998.44
2018-11-11T07:24:04.919Z,998.46
2018-11-11T07:25:04.888Z,998.41
2018-11-11T07:26:04.870Z,998.44
2018-11-11T07:27:04.855Z,998.41
2018-11-11T07:28:04.837Z,998.52
2018-11-11T07:29:04.818Z,998.47
2018-11-11T07:30:04.807Z,998.43
2018-11-11T07:31:04.785Z,998.48
2018-11-11T07:32:04.767Z,998.48
2018-11-11T07:33:04.749Z,998.49
2018-11-11T07:34:04.738Z,998.54
2018-11-11T07:35:04.716Z,998.56
2018-11-11T07:36:04.752Z,998.60
2018-11-11T07:37:04.679Z,998.53
2018-11-11T07:38:04.666Z,998.55
2018-11-11T07:39:04.704Z,998.55
2018-11-11T07:40:04.624Z,998.59
2018-11-11T07:41:04.607Z,998.60
2018-11-11T07:42:04.590Z,998.60
2018-11-11T07:43:04.573Z,998.56
2018-11-11T07:44:04.557Z,998.58
2018-11-11T07:45:04.538Z,998.62
2018-11-11T07:46:04.534Z,998.66
2018-11-11T07:47:04.506Z,998.67
2018-11-11T07:48:04.554Z,998.67
2018-11-11T07:49:04.468Z,998.73
2018-11-11T07:50:04.451Z,998.74
2018-11-11T07:51:04.434Z,998.76
2018-11-11T07:52:04.523Z,998.72
2018-11-11T07:53:04.401Z,998.77
2018-11-11T07:54:04.384Z,998.77
2018-11-11T07:55:04.467Z,998.79
2018-11-11T07:56:04.343Z,998.78
2018-11-11T07:57:04.329Z,998.77
2018-11-11T07:58:04.311Z,998.71
2018-11-11T07:59:04.301Z,998.76
2018-11-11T08:00:04.275Z,998.79
2018-11-11T08:01:04.259Z,998.77
2018-11-11T08:02:04.276Z,998.77
2018-11-11T08:03:04.222Z,998.79
2018-11-11T08:04:04.210Z,998.80
2018-11-11T08:05:04.193Z,998.83
2018-11-11T08:06:04.172Z,998.89
2018-11-11T08:07:04.158Z,998.88
2018-11-11T08:08:04.137Z,998.94
2018-11-11T08:09:04.119Z,998.91
2018-11-11T08:10:04.102Z,998.97
2018-11-11T08:11:04.145Z,998.99
2018-11-11T08:12:04.070Z,998.92
2018-11-11T08:13:04.049Z,998.95
2018-11-11T08:14:04.030Z,998.93
2018-11-11T08:15:04.019Z,998.92
2018-11-11T08:16:04.006Z,998.99
2018-11-11T08:17:03.982Z,998.99
2018-11-11T08:18:03.966Z,999.02
2018-11-11T08:19:03.949Z,998.93
2018-11-11T08:20:03.932Z,998.97
2018-11-11T08:21:03.935Z,999.00
2018-11-11T08:22:03.898Z,999.01
2018-11-11T08:23:03.883Z,999.01
2018-11-11T08:24:03.873Z,998.98
2018-11-11T08:25:03.849Z,999.00
2018-11-11T08:26:03.840Z,999.03
2018-11-11T08:27:03.815Z,998.97
2018-11-11T08:28:03.797Z,999.01
2018-11-11T08:29:03.782Z,999.02
2018-11-11T08:30:03.765Z,999.02
2018-11-11T08:31:03.750Z,999.08
2018-11-11T08:32:03.796Z,999.11
2018-11-11T08:33:03.715Z,999.10
2018-11-11T08:34:03.697Z,999.05
2018-11-11T08:35:03.687Z,999.29
2018-11-11T08:36:03.664Z,999.04
2018-11-11T08:37:03.649Z,999.13
2018-11-11T08:38:03.645Z,999.07
2018-11-11T08:39:03.616Z,999.11
2018-11-11T08:40:03.608Z,999.10
2018-11-11T08:41:03.594Z,999.11
2018-11-11T08:42:03.575Z,999.10
2018-11-11T08:43:03.555Z,999.16
2018-11-11T08:44:03.546Z,999.20
2018-11-11T08:45:03.526Z,999.12
2018-11-11T08:46:03.508Z,999.13
2018-11-11T08:47:03.497Z,999.16
2018-11-11T08:48:03.482Z,999.11
2018-11-11T08:49:03.467Z,999.25
2018-11-11T08:50:03.441Z,999.25
2018-11-11T08:51:03.422Z,999.27
2018-11-11T08:52:03.407Z,999.26
2018-11-11T08:53:03.391Z,999.23
2018-11-11T08:54:03.373Z,999.27
2018-11-11T08:55:03.370Z,999.29
2018-11-11T08:56:03.339Z,999.23
2018-11-11T08:57:03.332Z,999.25
2018-11-11T08:58:03.332Z,999.32
2018-11-11T08:59:03.294Z,999.32
2018-11-11T09:00:03.274Z,999.32
2018-11-11T09:01:03.269Z,999.32
2018-11-11T09:02:03.245Z,999.35
2018-11-11T09:03:03.237Z,999.39
2018-11-11T09:04:03.212Z,999.36
2018-11-11T09:05:03.228Z,999.45
2018-11-11T09:06:03.181Z,999.53
2018-11-11T09:07:03.161Z,999.44
2018-11-11T09:08:03.142Z,999.45
2018-11-11T09:09:03.129Z,999.48
2018-11-11T09:10:03.116Z,999.56
2018-11-11T09:11:03.100Z,999.55
2018-11-11T09:12:03.087Z,999.65
2018-11-11T09:13:03.068Z,999.48
2018-11-11T09:14:03.052Z,999.54
2018-11-11T09:15:03.036Z,999.59
2018-11-11T09:16:03.020Z,999.66
2018-11-11T09:17:03.006Z,999.65
2018-11-11T09:18:02.991Z,999.57
2018-11-11T09:19:02.973Z,999.57
2018-11-11T09:20:02.962Z,999.53
2018-11-11T09:21:02.941Z,999.47
2018-11-11T09:22:02.929Z,999.48
2018-11-11T09:23:02.909Z,999.51
2018-11-11T09:24:02.903Z,999.56
2018-11-11T09:25:02.886Z,999.56
2018-11-11T09:26:02.865Z,999.53
2018-11-11T09:27:02.850Z,999.54
2018-11-11T09:28:02.837Z,999.62
2018-11-11T09:29:02.872Z,999.54
2018-11-11T09:30:02.809Z,999.62
2018-11-11T09:31:02.783Z,999.64
2018-11-11T09:32:02.766Z,999.68
2018-11-11T09:33:02.750Z,999.65
2018-11-11T09:34:02.735Z,999.72
2018-11-11T09:35:02.746Z,999.67
2018-11-11T09:36:02.703Z,999.67
2018-11-11T09:37:02.690Z,999.69
2018-11-11T09:38:02.672Z,999.68
2018-11-11T09:39:02.684Z,999.65
2018-11-11T09:40:02.648Z,999.70
2018-11-11T09:41:02.621Z,999.72
2018-11-11T09:42:02.613Z,999.73
2018-11-11T09:43:02.590Z,999.77
2018-11-11T09:44:02.572Z,999.65
2018-11-11T09:45:02.556Z,999.71
2018-11-11T09:46:02.547Z,999.67
2018-11-11T09:47:02.523Z,999.70
2018-11-11T09:48:02.709Z,999.74
2018-11-11T09:49:02.504Z,999.72
2018-11-11T09:50:02.484Z,999.76
2018-11-11T09:51:02.463Z,999.76
2018-11-11T09:52:02.449Z,999.79
2018-11-11T09:53:02.429Z,999.77
2018-11-11T09:54:02.447Z,999.87
2018-11-11T09:55:02.395Z,999.78
2018-11-11T09:56:02.377Z,999.81
2018-11-11T09:57:02.361Z,999.77
2018-11-11T09:58:02.348Z,999.78
2018-11-11T09:59:02.328Z,999.84
2018-11-11T10:00:02.345Z,999.80
2018-11-11T10:01:02.294Z,999.83
2018-11-11T10:02:02.278Z,999.83
2018-11-11T10:03:02.262Z,999.83
2018-11-11T10:04:02.248Z,999.82
2018-11-11T10:05:02.229Z,999.86
2018-11-11T10:06:02.215Z,999.77
2018-11-11T10:07:02.250Z,999.70
2018-11-11T10:08:02.187Z,999.76
2018-11-11T10:09:02.169Z,999.77
2018-11-11T10:10:02.152Z,999.70
2018-11-11T10:11:02.139Z,999.94
2018-11-11T10:12:02.201Z,1000.15
2018-11-11T10:13:02.106Z,1001.24
2018-11-11T10:14:02.102Z,1001.10
2018-11-11T10:15:02.087Z,1001.18
2018-11-11T10:16:02.060Z,1001.19
2018-11-11T10:17:02.045Z,1001.19
2018-11-11T10:18:02.037Z,1000.47
2018-11-11T10:19:02.025Z,1000.68
2018-11-11T10:20:02.037Z,999.83
2018-11-11T10:21:01.998Z,999.83
2018-11-11T10:22:01.988Z,999.94
2018-11-11T10:23:01.972Z,1000.29
2018-11-11T10:24:01.957Z,1000.08
2018-11-11T10:25:01.948Z,999.89
2018-11-11T10:26:01.929Z,999.86
2018-11-11T10:27:01.943Z,999.87
2018-11-11T10:28:01.906Z,999.75
2018-11-11T10:29:01.945Z,1000.30
2018-11-11T10:30:01.900Z,999.81
2018-11-11T10:31:01.865Z,999.88
2018-11-11T10:32:01.855Z,999.78
2018-11-11T10:33:01.840Z,999.86
2018-11-11T10:34:01.830Z,999.90
2018-11-11T10:35:01.813Z,999.77
2018-11-11T10:36:01.798Z,999.89
2018-11-11T10:37:01.782Z,999.89
2018-11-11T10:38:01.772Z,999.88
2018-11-11T10:39:01.796Z,1000.07
2018-11-11T10:40:01.744Z,1000.18
2018-11-11T10:41:01.725Z,1000.05
2018-11-11T10:42:01.709Z,999.84
2018-11-11T10:43:01.712Z,999.94
2018-11-11T10:44:01.683Z,999.82
2018-11-11T10:45:01.678Z,1000.40
2018-11-11T10:46:01.828Z,999.96
2018-11-11T10:47:01.641Z,1000.13
2018-11-11T10:48:01.625Z,999.97
2018-11-11T10:49:01.614Z,999.89
2018-11-11T10:50:01.599Z,999.91
2018-11-11T10:51:01.584Z,999.85
2018-11-11T10:52:01.572Z,999.90
2018-11-11T10:53:01.558Z,999.86
2018-11-11T10:54:01.681Z,999.80
2018-11-11T10:55:01.530Z,999.93
2018-11-11T10:56:01.521Z,999.70
2018-11-11T10:57:01.502Z,999.73
2018-11-11T10:58:01.495Z,999.79
2018-11-11T10:59:01.475Z,999.81
2018-11-11T11:00:01.526Z,999.81
2018-11-11T11:01:01.448Z,999.77
2018-11-11T11:02:01.441Z,999.88
2018-11-11T11:03:01.423Z,999.87
2018-11-11T11:04:01.408Z,999.82
2018-11-11T11:05:01.400Z,999.78
2018-11-11T11:06:01.460Z,999.74
2018-11-11T11:07:01.378Z,999.71
2018-11-11T11:08:01.357Z,999.75
2018-11-11T11:09:01.334Z,999.80
2018-11-11T11:10:01.324Z,999.85
2018-11-11T11:11:01.304Z,999.98
2018-11-11T11:12:01.288Z,999.90
2018-11-11T11:13:01.276Z,999.90
2018-11-11T11:14:01.363Z,999.95
2018-11-11T11:15:01.243Z,999.93
2018-11-11T11:16:01.231Z,999.98
2018-11-11T11:17:01.216Z,999.98
2018-11-11T11:18:01.198Z,999.98
2018-11-11T11:19:01.184Z,999.97
2018-11-11T11:20:01.170Z,1000.06
2018-11-11T11:21:01.151Z,1000.08
2018-11-11T11:22:01.141Z,1000.17
2018-11-11T11:23:01.245Z,1000.27
2018-11-11T11:24:01.105Z,1000.23
2018-11-11T11:25:01.104Z,1000.32
2018-11-11T11:26:01.078Z,1000.25
2018-11-11T11:27:01.089Z,1000.30
2018-11-11T11:28:01.042Z,1000.32
2018-11-11T11:29:01.079Z,1000.32
2018-11-11T11:30:01.071Z,1000.40
2018-11-11T11:31:00.997Z,1000.40
2018-11-11T11:32:01.140Z,1000.38
2018-11-11T11:33:00.975Z,1000.38
2018-11-11T11:34:00.951Z,1000.38
2018-11-11T11:35:00.940Z,1000.41
2018-11-11T11:36:00.916Z,1000.45
2018-11-11T11:37:00.903Z,1000.46
2018-11-11T11:38:00.905Z,1000.48
2018-11-11T11:39:00.871Z,1000.51
2018-11-11T11:40:00.854Z,1000.46
2018-11-11T11:41:00.843Z,1000.47
2018-11-11T11:42:00.841Z,1000.48
2018-11-11T11:43:00.811Z,1000.41
2018-11-11T11:44:00.871Z,1000.56
2018-11-11T11:45:00.793Z,1000.43
2018-11-11T11:46:00.772Z,1000.43
2018-11-11T11:47:00.748Z,1000.41
2018-11-11T11:48:00.734Z,1000.39
2018-11-11T11:49:00.723Z,1000.51
2018-11-11T11:50:00.804Z,1000.43
2018-11-11T11:51:00.679Z,1000.43
2018-11-11T11:52:00.722Z,1000.48
2018-11-11T11:53:00.748Z,1000.52
2018-11-11T11:54:00.638Z,1000.56
2018-11-11T11:55:00.623Z,1000.58
2018-11-11T11:56:00.602Z,1000.59
2018-11-11T11:57:00.595Z,1000.65
2018-11-11T11:58:00.633Z,1000.62
2018-11-11T11:59:00.563Z,1000.62
2018-11-11T12:00:00.539Z,1000.58
2018-11-11T12:01:00.528Z,1000.58
2018-11-11T12:02:00.562Z,1000.62
2018-11-11T12:03:00.492Z,1000.64
2018-11-11T12:04:00.477Z,1000.63
2018-11-11T12:05:00.459Z,1000.59
2018-11-11T12:06:00.451Z,1000.60
2018-11-11T12:07:00.431Z,1000.57
2018-11-11T12:08:00.413Z,1000.59
2018-11-11T12:09:00.475Z,1000.61
2018-11-11T12:10:00.383Z,1000.57
2018-11-11T12:11:00.376Z,1000.66
2018-11-11T12:12:00.355Z,1000.53
2018-11-11T12:13:00.336Z,1000.58
2018-11-11T12:14:00.326Z,1000.55
2018-11-11T12:15:00.306Z,1000.54
2018-11-11T12:16:00.287Z,1000.54
2018-11-11T12:17:00.339Z,1000.47
2018-11-11T12:18:00.257Z,1000.52
2018-11-11T12:19:00.241Z,1000.52
2018-11-11T12:20:00.227Z,1000.50
2018-11-11T12:21:00.211Z,1000.56
2018-11-11T12:22:00.196Z,1000.51
2018-11-11T12:23:00.187Z,1000.48
2018-11-11T12:24:00.162Z,1000.55
2018-11-11T12:25:00.149Z,1000.59
2018-11-11T12:26:00.137Z,1000.66
2018-11-11T12:27:00.121Z,1000.61
2018-11-11T12:28:00.111Z,1000.60
2018-11-11T12:29:00.084Z,1000.63
2018-11-11T12:30:00.073Z,1000.58
2018-11-11T12:31:00.155Z,1000.56
2018-11-11T12:32:00.040Z,1000.53